3XS8 weather

Ken Ada Ranch Airport
Waller, Texas, United States

Public forecast

Using degrees Fahrenheit for public forecast. Weather courtesy of forecast.io.

METAR (pilot weather report)

Closest report is David Wayne Hooks Memorial Airport, 18.5 nm (34.3 km) ESE. Retrieved 2019/09/20 17:38 UTC (0 seconds ago):

KDWH 201738Z 19004KT 2 1/2SM +RA BR FEW031 BKN043 OVC065 24/23 A3003 RMK AO2 LTG DSNT N RAB18 TSB1657E1658 P0010 T02440228

TAF (pilot weather forecast)

Forecast is more than 12 hours old.

Closest forecast is David Wayne Hooks Memorial Airport, 18.5 nm (34.3 km) ESE. Retrieved 2017/02/07 12:51 UTC (3 years ago):

TAF KDWH 071148Z 0712/0812 20009G15KT P6SM SCT022 OVC030 TEMPO 0712/0715 BKN018 FM071500 23010KT P6SM BKN015 FM071900 25010KT P6SM SCT025 FM080100 22005KT P6SM SCT250 TEMPO 0807/0809 3SM BR BKN013 FM080900 VRB03KT 2SM BR OVC008